sensor_id;sensor_type;location;lat;lon;timestamp;temperature;humidity
2625;DHT22;1322;53.256;10.386;2022-08-19T00:01:30;21.80;99.90
2625;DHT22;1322;53.256;10.386;2022-08-19T00:03:57;21.70;99.90
2625;DHT22;1322;53.256;10.386;2022-08-19T00:06:23;21.60;99.90
2625;DHT22;1322;53.256;10.386;2022-08-19T00:08:49;21.50;99.90
2625;DHT22;1322;53.256;10.386;2022-08-19T00:11:17;21.40;99.90
2625;DHT22;1322;53.256;10.386;2022-08-19T00:13:42;21.40;99.90
2625;DHT22;1322;53.256;10.386;2022-08-19T00:16:08;21.30;99.90
2625;DHT22;1322;53.256;10.386;2022-08-19T00:18:34;21.30;99.90
2625;DHT22;1322;53.256;10.386;2022-08-19T00:21:00;21.30;99.90
2625;DHT22;1322;53.256;10.386;2022-08-19T00:23:26;21.20;99.90
2625;DHT22;1322;53.256;10.386;2022-08-19T00:25:53;21.10;99.90
2625;DHT22;1322;53.256;10.386;2022-08-19T00:28:19;21.10;99.90
2625;DHT22;1322;53.256;10.386;2022-08-19T00:30:46;21.10;99.90
2625;DHT22;1322;53.256;10.386;2022-08-19T00:33:11;21.00;99.90
2625;DHT22;1322;53.256;10.386;2022-08-19T00:35:38;21.00;99.90
2625;DHT22;1322;53.256;10.386;2022-08-19T00:38:05;21.00;99.90
2625;DHT22;1322;53.256;10.386;2022-08-19T00:40:32;21.00;99.90
2625;DHT22;1322;53.256;10.386;2022-08-19T00:42:57;21.00;99.90
2625;DHT22;1322;53.256;10.386;2022-08-19T00:45:25;21.00;99.90
2625;DHT22;1322;53.256;10.386;2022-08-19T00:47:51;21.00;99.90
2625;DHT22;1322;53.256;10.386;2022-08-19T00:50:18;21.00;99.90
2625;DHT22;1322;53.256;10.386;2022-08-19T00:52:47;21.00;99.90
2625;DHT22;1322;53.256;10.386;2022-08-19T00:55:25;21.00;99.90
2625;DHT22;1322;53.256;10.386;2022-08-19T00:57:55;21.00;99.90
2625;DHT22;1322;53.256;10.386;2022-08-19T01:00:23;21.10;99.90
2625;DHT22;1322;53.256;10.386;2022-08-19T01:02:49;21.10;99.90
2625;DHT22;1322;53.256;10.386;2022-08-19T01:05:26;21.10;99.90
2625;DHT22;1322;53.256;10.386;2022-08-19T01:07:54;21.10;99.90
2625;DHT22;1322;53.256;10.386;2022-08-19T01:10:25;21.10;99.90
2625;DHT22;1322;53.256;10.386;2022-08-19T01:12:52;21.10;99.90
2625;DHT22;1322;53.256;10.386;2022-08-19T01:15:23;21.00;99.90
2625;DHT22;1322;53.256;10.386;2022-08-19T01:17:50;21.00;99.90
2625;DHT22;1322;53.256;10.386;2022-08-19T01:20:20;21.00;99.90
2625;DHT22;1322;53.256;10.386;2022-08-19T01:22:53;21.00;99.90
2625;DHT22;1322;53.256;10.386;2022-08-19T01:25:22;21.00;99.90
2625;DHT22;1322;53.256;10.386;2022-08-19T01:27:50;20.90;99.90
2625;DHT22;1322;53.256;10.386;2022-08-19T01:30:24;20.90;99.90
2625;DHT22;1322;53.256;10.386;2022-08-19T01:32:51;20.90;99.90
2625;DHT22;1322;53.256;10.386;2022-08-19T01:35:17;20.80;99.90
2625;DHT22;1322;53.256;10.386;2022-08-19T01:37:53;20.80;99.90
2625;DHT22;1322;53.256;10.386;2022-08-19T01:40:20;20.80;99.90
2625;DHT22;1322;53.256;10.386;2022-08-19T01:42:48;20.80;99.90
2625;DHT22;1322;53.256;10.386;2022-08-19T01:45:15;20.80;99.90
2625;DHT22;1322;53.256;10.386;2022-08-19T01:47:41;20.80;99.90
2625;DHT22;1322;53.256;10.386;2022-08-19T01:50:09;20.80;99.90
2625;DHT22;1322;53.256;10.386;2022-08-19T01:52:39;20.80;99.90
2625;DHT22;1322;53.256;10.386;2022-08-19T01:55:09;20.90;99.90
2625;DHT22;1322;53.256;10.386;2022-08-19T01:57:35;20.80;99.90
2625;DHT22;1322;53.256;10.386;2022-08-19T02:00:06;20.90;99.90
2625;DHT22;1322;53.256;10.386;2022-08-19T02:02:32;20.80;99.90
2625;DHT22;1322;53.256;10.386;2022-08-19T02:04:58;20.80;99.90
2625;DHT22;1322;53.256;10.386;2022-08-19T02:07:24;20.80;99.90
2625;DHT22;1322;53.256;10.386;2022-08-19T02:09:50;20.70;99.90
2625;DHT22;1322;53.256;10.386;2022-08-19T02:12:15;20.70;99.90
2625;DHT22;1322;53.256;10.386;2022-08-19T02:14:42;20.70;99.90
2625;DHT22;1322;53.256;10.386;2022-08-19T02:17:07;20.70;99.90
2625;DHT22;1322;53.256;10.386;2022-08-19T02:19:33;20.60;99.90
2625;DHT22;1322;53.256;10.386;2022-08-19T02:21:59;20.60;99.90
2625;DHT22;1322;53.256;10.386;2022-08-19T02:24:26;20.60;99.90
2625;DHT22;1322;53.256;10.386;2022-08-19T02:26:52;20.60;99.90
2625;DHT22;1322;53.256;10.386;2022-08-19T02:29:18;20.50;99.90
2625;DHT22;1322;53.256;10.386;2022-08-19T02:31:43;20.60;99.90
2625;DHT22;1322;53.256;10.386;2022-08-19T02:34:09;20.60;99.90
2625;DHT22;1322;53.256;10.386;2022-08-19T02:36:34;20.60;99.90
2625;DHT22;1322;53.256;10.386;2022-08-19T02:39:00;20.70;99.90
2625;DHT22;1322;53.256;10.386;2022-08-19T02:41:29;20.70;99.90
2625;DHT22;1322;53.256;10.386;2022-08-19T02:43:57;20.80;99.90
2625;DHT22;1322;53.256;10.386;2022-08-19T02:46:25;20.80;99.90
2625;DHT22;1322;53.256;10.386;2022-08-19T02:48:54;20.80;99.90
2625;DHT22;1322;53.256;10.386;2022-08-19T02:51:27;20.80;99.90
2625;DHT22;1322;53.256;10.386;2022-08-19T02:53:53;20.70;99.90
2625;DHT22;1322;53.256;10.386;2022-08-19T02:56:21;20.60;99.90
2625;DHT22;1322;53.256;10.386;2022-08-19T02:58:47;20.50;99.90
2625;DHT22;1322;53.256;10.386;2022-08-19T03:01:23;20.50;99.90
2625;DHT22;1322;53.256;10.386;2022-08-19T03:03:49;20.40;99.90
2625;DHT22;1322;53.256;10.386;2022-08-19T03:06:16;20.50;99.90
2625;DHT22;1322;53.256;10.386;2022-08-19T03:08:43;20.50;99.90
2625;DHT22;1322;53.256;10.386;2022-08-19T03:11:30;20.50;99.90
2625;DHT22;1322;53.256;10.386;2022-08-19T03:13:57;20.50;99.90
2625;DHT22;1322;53.256;10.386;2022-08-19T03:16:25;20.50;99.90
2625;DHT22;1322;53.256;10.386;2022-08-19T03:18:52;20.50;99.90
2625;DHT22;1322;53.256;10.386;2022-08-19T03:21:24;20.50;99.90
2625;DHT22;1322;53.256;10.386;2022-08-19T03:23:53;20.40;99.90
2625;DHT22;1322;53.256;10.386;2022-08-19T03:26:19;20.40;99.90
2625;DHT22;1322;53.256;10.386;2022-08-19T03:28:45;20.50;99.90
2625;DHT22;1322;53.256;10.386;2022-08-19T03:31:17;20.50;99.90
2625;DHT22;1322;53.256;10.386;2022-08-19T03:33:43;20.60;99.90
2625;DHT22;1322;53.256;10.386;2022-08-19T03:36:15;20.70;99.90
2625;DHT22;1322;53.256;10.386;2022-08-19T03:38:48;20.80;99.90
2625;DHT22;1322;53.256;10.386;2022-08-19T03:41:22;20.90;99.90
2625;DHT22;1322;53.256;10.386;2022-08-19T03:43:48;21.00;99.90
2625;DHT22;1322;53.256;10.386;2022-08-19T03:46:20;21.00;99.90
2625;DHT22;1322;53.256;10.386;2022-08-19T03:48:48;21.10;99.90
2625;DHT22;1322;53.256;10.386;2022-08-19T03:51:23;21.10;99.90
2625;DHT22;1322;53.256;10.386;2022-08-19T03:53:50;21.10;99.90
2625;DHT22;1322;53.256;10.386;2022-08-19T03:56:16;21.20;99.90
2625;DHT22;1322;53.256;10.386;2022-08-19T03:58:42;21.20;99.90
2625;DHT22;1322;53.256;10.386;2022-08-19T04:01:09;21.10;99.90
2625;DHT22;1322;53.256;10.386;2022-08-19T04:03:35;21.10;99.90
2625;DHT22;1322;53.256;10.386;2022-08-19T04:06:29;21.10;99.90
2625;DHT22;1322;53.256;10.386;2022-08-19T04:08:56;21.00;99.90
2625;DHT22;1322;53.256;10.386;2022-08-19T04:11:26;21.00;99.90
2625;DHT22;1322;53.256;10.386;2022-08-19T04:13:53;20.90;99.90
2625;DHT22;1322;53.256;10.386;2022-08-19T04:16:23;20.80;99.90
2625;DHT22;1322;53.256;10.386;2022-08-19T04:18:49;20.80;99.90
2625;DHT22;1322;53.256;10.386;2022-08-19T04:21:17;20.70;99.90
2625;DHT22;1322;53.256;10.386;2022-08-19T04:23:44;20.60;99.90
2625;DHT22;1322;53.256;10.386;2022-08-19T04:26:28;20.60;99.90
2625;DHT22;1322;53.256;10.386;2022-08-19T04:28:56;20.60;99.90
2625;DHT22;1322;53.256;10.386;2022-08-19T04:31:24;20.60;99.90
2625;DHT22;1322;53.256;10.386;2022-08-19T04:33:57;20.60;99.90
2625;DHT22;1322;53.256;10.386;2022-08-19T04:36:29;20.60;99.90
2625;DHT22;1322;53.256;10.386;2022-08-19T04:38:57;20.70;99.90
2625;DHT22;1322;53.256;10.386;2022-08-19T04:41:23;20.70;99.90
2625;DHT22;1322;53.256;10.386;2022-08-19T04:44:08;20.80;99.90
2625;DHT22;1322;53.256;10.386;2022-08-19T04:46:33;20.80;99.90
2625;DHT22;1322;53.256;10.386;2022-08-19T04:49:01;20.80;99.90
2625;DHT22;1322;53.256;10.386;2022-08-19T04:51:27;20.80;99.90
2625;DHT22;1322;53.256;10.386;2022-08-19T04:53:53;20.80;99.90
2625;DHT22;1322;53.256;10.386;2022-08-19T04:56:19;20.80;99.90
2625;DHT22;1322;53.256;10.386;2022-08-19T04:58:46;20.80;99.90
2625;DHT22;1322;53.256;10.386;2022-08-19T05:01:14;20.70;99.90
2625;DHT22;1322;53.256;10.386;2022-08-19T05:03:42;20.60;99.90
2625;DHT22;1322;53.256;10.386;2022-08-19T05:06:12;20.60;99.90
2625;DHT22;1322;53.256;10.386;2022-08-19T05:08:40;20.60;99.90
2625;DHT22;1322;53.256;10.386;2022-08-19T05:11:18;20.60;99.90
2625;DHT22;1322;53.256;10.386;2022-08-19T05:13:46;20.50;99.90
2625;DHT22;1322;53.256;10.386;2022-08-19T05:16:13;20.50;99.90
2625;DHT22;1322;53.256;10.386;2022-08-19T05:18:39;20.60;99.90
2625;DHT22;1322;53.256;10.386;2022-08-19T05:21:23;20.70;99.90
2625;DHT22;1322;53.256;10.386;2022-08-19T05:24:08;20.70;99.90
2625;DHT22;1322;53.256;10.386;2022-08-19T05:26:37;20.70;99.90
2625;DHT22;1322;53.256;10.386;2022-08-19T05:29:04;20.80;99.90
2625;DHT22;1322;53.256;10.386;2022-08-19T05:31:30;20.80;99.90
2625;DHT22;1322;53.256;10.386;2022-08-19T05:33:56;20.90;99.90
2625;DHT22;1322;53.256;10.386;2022-08-19T05:36:28;20.90;99.90
2625;DHT22;1322;53.256;10.386;2022-08-19T05:38:58;20.90;99.90
2625;DHT22;1322;53.256;10.386;2022-08-19T05:41:23;21.00;99.90
2625;DHT22;1322;53.256;10.386;2022-08-19T05:43:55;21.00;99.90
2625;DHT22;1322;53.256;10.386;2022-08-19T05:46:22;21.00;99.90
2625;DHT22;1322;53.256;10.386;2022-08-19T05:48:48;21.00;99.90
2625;DHT22;1322;53.256;10.386;2022-08-19T05:51:14;20.90;99.90
2625;DHT22;1322;53.256;10.386;2022-08-19T05:53:41;20.90;99.90
2625;DHT22;1322;53.256;10.386;2022-08-19T05:56:10;20.90;99.90
2625;DHT22;1322;53.256;10.386;2022-08-19T05:58:37;20.90;99.90
2625;DHT22;1322;53.256;10.386;2022-08-19T06:01:04;20.90;99.90
2625;DHT22;1322;53.256;10.386;2022-08-19T06:03:35;21.00;99.90
2625;DHT22;1322;53.256;10.386;2022-08-19T06:06:03;21.00;99.90
2625;DHT22;1322;53.256;10.386;2022-08-19T06:08:29;20.90;99.90
2625;DHT22;1322;53.256;10.386;2022-08-19T06:10:55;20.90;99.90
2625;DHT22;1322;53.256;10.386;2022-08-19T06:13:22;20.90;99.90
2625;DHT22;1322;53.256;10.386;2022-08-19T06:15:48;20.80;99.90
2625;DHT22;1322;53.256;10.386;2022-08-19T06:18:14;20.90;99.90
2625;DHT22;1322;53.256;10.386;2022-08-19T06:20:41;21.00;99.90
2625;DHT22;1322;53.256;10.386;2022-08-19T06:23:07;21.00;99.90
2625;DHT22;1322;53.256;10.386;2022-08-19T06:25:34;21.00;99.90
2625;DHT22;1322;53.256;10.386;2022-08-19T06:28:00;21.10;99.90
2625;DHT22;1322;53.256;10.386;2022-08-19T06:30:26;21.10;99.90
2625;DHT22;1322;53.256;10.386;2022-08-19T06:32:51;21.10;99.90
2625;DHT22;1322;53.256;10.386;2022-08-19T06:35:17;21.10;99.90
2625;DHT22;1322;53.256;10.386;2022-08-19T06:37:46;21.10;99.90
2625;DHT22;1322;53.256;10.386;2022-08-19T06:40:12;21.10;99.90
2625;DHT22;1322;53.256;10.386;2022-08-19T06:42:38;21.10;99.90
2625;DHT22;1322;53.256;10.386;2022-08-19T06:45:05;21.10;99.90
2625;DHT22;1322;53.256;10.386;2022-08-19T06:47:31;21.10;99.90
2625;DHT22;1322;53.256;10.386;2022-08-19T06:49:58;21.00;99.90
2625;DHT22;1322;53.256;10.386;2022-08-19T06:52:31;21.00;99.90
2625;DHT22;1322;53.256;10.386;2022-08-19T06:54:58;21.00;99.90
2625;DHT22;1322;53.256;10.386;2022-08-19T06:57:28;21.10;99.90
2625;DHT22;1322;53.256;10.386;2022-08-19T06:59:58;21.00;99.90
2625;DHT22;1322;53.256;10.386;2022-08-19T07:02:25;20.90;99.90
2625;DHT22;1322;53.256;10.386;2022-08-19T07:04:52;20.90;99.90
2625;DHT22;1322;53.256;10.386;2022-08-19T07:07:19;20.70;99.90
2625;DHT22;1322;53.256;10.386;2022-08-19T07:09:46;20.70;99.90
2625;DHT22;1322;53.256;10.386;2022-08-19T07:12:13;20.70;99.90
2625;DHT22;1322;53.256;10.386;2022-08-19T07:14:41;20.70;99.90
2625;DHT22;1322;53.256;10.386;2022-08-19T07:17:11;20.70;99.90
2625;DHT22;1322;53.256;10.386;2022-08-19T07:19:38;20.70;99.90
2625;DHT22;1322;53.256;10.386;2022-08-19T07:22:05;20.70;99.90
2625;DHT22;1322;53.256;10.386;2022-08-19T07:24:32;20.60;99.90
2625;DHT22;1322;53.256;10.386;2022-08-19T07:27:00;20.70;99.90
2625;DHT22;1322;53.256;10.386;2022-08-19T07:29:32;20.70;99.90
2625;DHT22;1322;53.256;10.386;2022-08-19T07:32:00;20.80;99.90
2625;DHT22;1322;53.256;10.386;2022-08-19T07:34:27;20.80;99.90
2625;DHT22;1322;53.256;10.386;2022-08-19T07:36:53;20.80;99.90
2625;DHT22;1322;53.256;10.386;2022-08-19T07:39:23;20.70;99.90
2625;DHT22;1322;53.256;10.386;2022-08-19T07:41:49;20.80;99.90
2625;DHT22;1322;53.256;10.386;2022-08-19T07:44:16;20.70;99.90
2625;DHT22;1322;53.256;10.386;2022-08-19T07:46:45;20.70;99.90
2625;DHT22;1322;53.256;10.386;2022-08-19T07:49:12;20.70;99.90
2625;DHT22;1322;53.256;10.386;2022-08-19T07:51:43;20.70;99.90
2625;DHT22;1322;53.256;10.386;2022-08-19T07:54:09;20.70;99.90
2625;DHT22;1322;53.256;10.386;2022-08-19T07:56:37;20.80;99.90
2625;DHT22;1322;53.256;10.386;2022-08-19T07:59:03;20.80;99.90
2625;DHT22;1322;53.256;10.386;2022-08-19T08:01:28;20.80;99.90
2625;DHT22;1322;53.256;10.386;2022-08-19T08:03:56;20.80;99.90
2625;DHT22;1322;53.256;10.386;2022-08-19T08:06:40;20.80;99.90
2625;DHT22;1322;53.256;10.386;2022-08-19T08:09:36;20.80;99.90
2625;DHT22;1322;53.256;10.386;2022-08-19T08:12:07;20.90;99.90
2625;DHT22;1322;53.256;10.386;2022-08-19T08:14:44;20.80;99.90
2625;DHT22;1322;53.256;10.386;2022-08-19T08:17:12;20.70;99.90
2625;DHT22;1322;53.256;10.386;2022-08-19T08:19:39;20.80;99.90
2625;DHT22;1322;53.256;10.386;2022-08-19T08:22:07;20.80;99.90
2625;DHT22;1322;53.256;10.386;2022-08-19T08:24:33;20.80;99.90
2625;DHT22;1322;53.256;10.386;2022-08-19T08:27:00;20.80;99.90
2625;DHT22;1322;53.256;10.386;2022-08-19T08:29:27;20.80;99.90
2625;DHT22;1322;53.256;10.386;2022-08-19T08:31:53;20.80;99.90
2625;DHT22;1322;53.256;10.386;2022-08-19T08:34:20;20.80;99.90
2625;DHT22;1322;53.256;10.386;2022-08-19T08:36:46;20.80;99.90
2625;DHT22;1322;53.256;10.386;2022-08-19T08:39:18;20.80;99.90
2625;DHT22;1322;53.256;10.386;2022-08-19T08:42:01;20.80;99.90
2625;DHT22;1322;53.256;10.386;2022-08-19T08:47:04;20.80;99.90
2625;DHT22;1322;53.256;10.386;2022-08-19T08:52:07;20.90;99.90
2625;DHT22;1322;53.256;10.386;2022-08-19T08:54:39;20.80;99.90
2625;DHT22;1322;53.256;10.386;2022-08-19T08:57:10;20.90;99.90
2625;DHT22;1322;53.256;10.386;2022-08-19T08:59:40;21.00;99.90
2625;DHT22;1322;53.256;10.386;2022-08-19T09:02:07;21.00;99.90
2625;DHT22;1322;53.256;10.386;2022-08-19T09:04:35;21.00;99.90
2625;DHT22;1322;53.256;10.386;2022-08-19T09:07:26;20.90;99.90
2625;DHT22;1322;53.256;10.386;2022-08-19T09:10:28;21.00;99.90
2625;DHT22;1322;53.256;10.386;2022-08-19T09:13:16;20.90;99.90
2625;DHT22;1322;53.256;10.386;2022-08-19T09:15:52;20.80;99.90
2625;DHT22;1322;53.256;10.386;2022-08-19T09:18:19;20.90;99.90
2625;DHT22;1322;53.256;10.386;2022-08-19T09:20:46;20.90;99.90
2625;DHT22;1322;53.256;10.386;2022-08-19T09:23:13;21.00;99.90
2625;DHT22;1322;53.256;10.386;2022-08-19T09:25:38;20.90;99.90
2625;DHT22;1322;53.256;10.386;2022-08-19T09:28:06;20.90;99.90
2625;DHT22;1322;53.256;10.386;2022-08-19T09:30:40;20.80;99.90
2625;DHT22;1322;53.256;10.386;2022-08-19T09:33:06;20.90;99.90
2625;DHT22;1322;53.256;10.386;2022-08-19T09:35:33;20.90;99.90
2625;DHT22;1322;53.256;10.386;2022-08-19T09:37:59;20.90;99.90
2625;DHT22;1322;53.256;10.386;2022-08-19T09:40:29;20.80;99.90
2625;DHT22;1322;53.256;10.386;2022-08-19T09:42:55;20.90;99.90
2625;DHT22;1322;53.256;10.386;2022-08-19T09:45:22;20.90;99.90
2625;DHT22;1322;53.256;10.386;2022-08-19T09:47:50;21.00;99.90
2625;DHT22;1322;53.256;10.386;2022-08-19T09:50:16;21.00;99.90
2625;DHT22;1322;53.256;10.386;2022-08-19T09:52:43;21.00;99.90
2625;DHT22;1322;53.256;10.386;2022-08-19T09:55:10;21.00;99.90
2625;DHT22;1322;53.256;10.386;2022-08-19T09:57:37;21.00;99.90
2625;DHT22;1322;53.256;10.386;2022-08-19T10:00:05;21.10;99.90
2625;DHT22;1322;53.256;10.386;2022-08-19T10:02:31;21.10;99.90
2625;DHT22;1322;53.256;10.386;2022-08-19T10:04:57;21.10;99.90
2625;DHT22;1322;53.256;10.386;2022-08-19T10:07:42;21.10;99.90
2625;DHT22;1322;53.256;10.386;2022-08-19T10:10:08;21.20;99.90
2625;DHT22;1322;53.256;10.386;2022-08-19T10:12:34;21.20;99.90
2625;DHT22;1322;53.256;10.386;2022-08-19T10:15:01;21.20;99.90
2625;DHT22;1322;53.256;10.386;2022-08-19T10:17:27;21.20;99.90
2625;DHT22;1322;53.256;10.386;2022-08-19T10:19:54;21.20;99.90
2625;DHT22;1322;53.256;10.386;2022-08-19T10:22:19;21.20;99.90
2625;DHT22;1322;53.256;10.386;2022-08-19T10:24:48;21.20;99.90
2625;DHT22;1322;53.256;10.386;2022-08-19T10:27:15;21.10;99.90
2625;DHT22;1322;53.256;10.386;2022-08-19T10:29:40;21.20;99.90
2625;DHT22;1322;53.256;10.386;2022-08-19T10:32:07;21.30;99.90
2625;DHT22;1322;53.256;10.386;2022-08-19T10:34:35;21.40;99.90
2625;DHT22;1322;53.256;10.386;2022-08-19T10:37:02;21.50;99.90
2625;DHT22;1322;53.256;10.386;2022-08-19T10:39:32;21.70;99.90
2625;DHT22;1322;53.256;10.386;2022-08-19T10:41:58;21.80;99.90
2625;DHT22;1322;53.256;10.386;2022-08-19T10:44:24;21.90;99.90
2625;DHT22;1322;53.256;10.386;2022-08-19T10:46:49;21.90;99.90
2625;DHT22;1322;53.256;10.386;2022-08-19T10:49:15;22.00;99.90
2625;DHT22;1322;53.256;10.386;2022-08-19T10:51:42;22.10;99.90
2625;DHT22;1322;53.256;10.386;2022-08-19T10:54:26;22.10;99.90
2625;DHT22;1322;53.256;10.386;2022-08-19T10:57:12;22.20;99.90
2625;DHT22;1322;53.256;10.386;2022-08-19T10:59:38;22.30;99.90
2625;DHT22;1322;53.256;10.386;2022-08-19T11:02:07;22.30;99.90
2625;DHT22;1322;53.256;10.386;2022-08-19T11:04:35;22.20;99.90
2625;DHT22;1322;53.256;10.386;2022-08-19T11:07:00;22.20;99.90
2625;DHT22;1322;53.256;10.386;2022-08-19T11:09:26;22.10;99.90
2625;DHT22;1322;53.256;10.386;2022-08-19T11:11:55;22.10;99.90
2625;DHT22;1322;53.256;10.386;2022-08-19T11:14:22;22.20;99.90
2625;DHT22;1322;53.256;10.386;2022-08-19T11:16:51;22.20;99.90
2625;DHT22;1322;53.256;10.386;2022-08-19T11:19:18;22.10;99.90
2625;DHT22;1322;53.256;10.386;2022-08-19T11:21:47;22.20;99.90
2625;DHT22;1322;53.256;10.386;2022-08-19T11:24:18;22.30;99.90
2625;DHT22;1322;53.256;10.386;2022-08-19T11:26:47;22.50;99.90
2625;DHT22;1322;53.256;10.386;2022-08-19T11:29:18;22.70;99.90
2625;DHT22;1322;53.256;10.386;2022-08-19T11:31:47;22.80;99.90
2625;DHT22;1322;53.256;10.386;2022-08-19T11:34:21;22.80;99.90
2625;DHT22;1322;53.256;10.386;2022-08-19T11:36:49;22.90;99.90
2625;DHT22;1322;53.256;10.386;2022-08-19T11:39:17;23.00;99.90
2625;DHT22;1322;53.256;10.386;2022-08-19T11:41:43;23.00;99.90
2625;DHT22;1322;53.256;10.386;2022-08-19T11:44:09;23.00;99.90
2625;DHT22;1322;53.256;10.386;2022-08-19T11:46:36;23.00;99.90
2625;DHT22;1322;53.256;10.386;2022-08-19T11:49:03;23.10;99.90
2625;DHT22;1322;53.256;10.386;2022-08-19T11:51:30;23.10;99.90
2625;DHT22;1322;53.256;10.386;2022-08-19T11:53:58;23.20;99.90
2625;DHT22;1322;53.256;10.386;2022-08-19T11:56:24;23.20;99.90
2625;DHT22;1322;53.256;10.386;2022-08-19T11:58:51;23.20;99.90
2625;DHT22;1322;53.256;10.386;2022-08-19T12:01:20;23.20;99.90
2625;DHT22;1322;53.256;10.386;2022-08-19T12:03:48;23.30;99.90
2625;DHT22;1322;53.256;10.386;2022-08-19T12:06:19;23.30;99.90
2625;DHT22;1322;53.256;10.386;2022-08-19T12:08:45;23.20;99.90
2625;DHT22;1322;53.256;10.386;2022-08-19T12:11:12;23.30;99.90
2625;DHT22;1322;53.256;10.386;2022-08-19T12:13:39;23.30;99.90
2625;DHT22;1322;53.256;10.386;2022-08-19T12:16:13;23.20;99.90
2625;DHT22;1322;53.256;10.386;2022-08-19T12:18:41;23.10;99.90
2625;DHT22;1322;53.256;10.386;2022-08-19T12:21:09;23.00;99.90
2625;DHT22;1322;53.256;10.386;2022-08-19T12:23:36;23.00;99.90
2625;DHT22;1322;53.256;10.386;2022-08-19T12:26:03;23.00;99.90
2625;DHT22;1322;53.256;10.386;2022-08-19T12:28:29;23.10;99.90
2625;DHT22;1322;53.256;10.386;2022-08-19T12:30:56;23.10;99.90
2625;DHT22;1322;53.256;10.386;2022-08-19T12:33:22;23.20;99.90
2625;DHT22;1322;53.256;10.386;2022-08-19T12:35:50;23.20;99.90
2625;DHT22;1322;53.256;10.386;2022-08-19T12:38:16;23.20;99.90
2625;DHT22;1322;53.256;10.386;2022-08-19T12:40:45;23.30;99.90
2625;DHT22;1322;53.256;10.386;2022-08-19T12:43:11;23.20;99.90
2625;DHT22;1322;53.256;10.386;2022-08-19T12:45:37;23.20;99.90
2625;DHT22;1322;53.256;10.386;2022-08-19T12:48:03;23.30;99.90
2625;DHT22;1322;53.256;10.386;2022-08-19T12:50:30;23.30;99.90
2625;DHT22;1322;53.256;10.386;2022-08-19T12:52:56;23.40;99.90
2625;DHT22;1322;53.256;10.386;2022-08-19T12:55:22;23.60;99.90
2625;DHT22;1322;53.256;10.386;2022-08-19T12:57:48;23.70;99.90
2625;DHT22;1322;53.256;10.386;2022-08-19T13:00:19;23.80;99.90
2625;DHT22;1322;53.256;10.386;2022-08-19T13:02:48;23.90;99.90
2625;DHT22;1322;53.256;10.386;2022-08-19T13:05:18;23.90;99.90
2625;DHT22;1322;53.256;10.386;2022-08-19T13:07:49;23.80;99.90
2625;DHT22;1322;53.256;10.386;2022-08-19T13:10:17;23.90;99.90
2625;DHT22;1322;53.256;10.386;2022-08-19T13:12:44;23.90;99.90
2625;DHT22;1322;53.256;10.386;2022-08-19T13:15:10;24.10;99.90
2625;DHT22;1322;53.256;10.386;2022-08-19T13:17:36;24.30;99.90
2625;DHT22;1322;53.256;10.386;2022-08-19T13:20:03;24.40;99.90
2625;DHT22;1322;53.256;10.386;2022-08-19T13:22:29;24.40;99.90
2625;DHT22;1322;53.256;10.386;2022-08-19T13:24:55;24.40;99.90
2625;DHT22;1322;53.256;10.386;2022-08-19T13:27:20;24.40;99.90
2625;DHT22;1322;53.256;10.386;2022-08-19T13:29:46;24.50;99.90
2625;DHT22;1322;53.256;10.386;2022-08-19T13:32:30;24.60;99.90
2625;DHT22;1322;53.256;10.386;2022-08-19T13:35:14;24.80;99.90
2625;DHT22;1322;53.256;10.386;2022-08-19T13:37:40;24.90;99.90
2625;DHT22;1322;53.256;10.386;2022-08-19T13:40:11;24.90;99.90
2625;DHT22;1322;53.256;10.386;2022-08-19T13:42:39;24.80;99.90
2625;DHT22;1322;53.256;10.386;2022-08-19T13:45:06;24.70;99.90
2625;DHT22;1322;53.256;10.386;2022-08-19T13:47:33;25.00;99.90
2625;DHT22;1322;53.256;10.386;2022-08-19T13:50:04;25.00;99.90
2625;DHT22;1322;53.256;10.386;2022-08-19T13:52:30;25.10;99.90
2625;DHT22;1322;53.256;10.386;2022-08-19T13:54:56;25.30;99.90
2625;DHT22;1322;53.256;10.386;2022-08-19T13:57:21;25.40;99.90
2625;DHT22;1322;53.256;10.386;2022-08-19T13:59:47;25.40;99.90
2625;DHT22;1322;53.256;10.386;2022-08-19T14:02:13;25.50;99.90
2625;DHT22;1322;53.256;10.386;2022-08-19T14:04:38;25.60;99.90
2625;DHT22;1322;53.256;10.386;2022-08-19T14:07:04;25.70;99.90
2625;DHT22;1322;53.256;10.386;2022-08-19T14:09:30;25.70;99.90
2625;DHT22;1322;53.256;10.386;2022-08-19T14:11:55;25.70;99.90
2625;DHT22;1322;53.256;10.386;2022-08-19T14:14:21;25.50;99.90
2625;DHT22;1322;53.256;10.386;2022-08-19T14:16:47;25.30;99.90
2625;DHT22;1322;53.256;10.386;2022-08-19T14:19:13;25.20;99.90
2625;DHT22;1322;53.256;10.386;2022-08-19T14:21:40;25.00;99.90
2625;DHT22;1322;53.256;10.386;2022-08-19T14:24:07;25.00;99.90
2625;DHT22;1322;53.256;10.386;2022-08-19T14:26:33;24.90;99.90
2625;DHT22;1322;53.256;10.386;2022-08-19T14:28:59;25.00;99.90
2625;DHT22;1322;53.256;10.386;2022-08-19T14:31:26;25.10;99.90
2625;DHT22;1322;53.256;10.386;2022-08-19T14:33:52;25.00;99.90
2625;DHT22;1322;53.256;10.386;2022-08-19T14:36:19;25.00;99.90
2625;DHT22;1322;53.256;10.386;2022-08-19T14:38:45;25.00;99.90
2625;DHT22;1322;53.256;10.386;2022-08-19T14:41:14;25.30;99.90
2625;DHT22;1322;53.256;10.386;2022-08-19T14:43:41;25.50;99.90
2625;DHT22;1322;53.256;10.386;2022-08-19T14:46:07;25.60;99.90
2625;DHT22;1322;53.256;10.386;2022-08-19T14:48:35;25.60;99.90
2625;DHT22;1322;53.256;10.386;2022-08-19T14:51:03;25.60;99.90
2625;DHT22;1322;53.256;10.386;2022-08-19T14:53:29;25.60;99.90
2625;DHT22;1322;53.256;10.386;2022-08-19T14:55:55;25.50;99.90
2625;DHT22;1322;53.256;10.386;2022-08-19T14:58:20;25.40;99.90
2625;DHT22;1322;53.256;10.386;2022-08-19T15:00:48;25.20;99.90
2625;DHT22;1322;53.256;10.386;2022-08-19T15:03:13;25.20;99.90
2625;DHT22;1322;53.256;10.386;2022-08-19T15:05:39;25.10;99.90
2625;DHT22;1322;53.256;10.386;2022-08-19T15:08:04;25.10;99.90
2625;DHT22;1322;53.256;10.386;2022-08-19T15:10:30;25.20;99.90
2625;DHT22;1322;53.256;10.386;2022-08-19T15:12:56;25.20;99.90
2625;DHT22;1322;53.256;10.386;2022-08-19T15:15:21;25.20;99.90
2625;DHT22;1322;53.256;10.386;2022-08-19T15:17:48;25.20;99.90
2625;DHT22;1322;53.256;10.386;2022-08-19T15:20:17;25.20;99.90
2625;DHT22;1322;53.256;10.386;2022-08-19T15:22:43;25.30;99.90
2625;DHT22;1322;53.256;10.386;2022-08-19T15:25:11;25.40;99.90
2625;DHT22;1322;53.256;10.386;2022-08-19T15:27:37;25.40;99.90
2625;DHT22;1322;53.256;10.386;2022-08-19T15:30:06;25.40;99.90
2625;DHT22;1322;53.256;10.386;2022-08-19T15:32:34;25.20;99.90
2625;DHT22;1322;53.256;10.386;2022-08-19T15:35:00;25.20;99.90
2625;DHT22;1322;53.256;10.386;2022-08-19T15:37:28;25.10;99.90
2625;DHT22;1322;53.256;10.386;2022-08-19T15:39:54;25.00;99.90
2625;DHT22;1322;53.256;10.386;2022-08-19T15:42:19;25.00;99.90
2625;DHT22;1322;53.256;10.386;2022-08-19T15:44:46;24.90;99.90
2625;DHT22;1322;53.256;10.386;2022-08-19T15:47:13;25.00;99.90
2625;DHT22;1322;53.256;10.386;2022-08-19T15:49:38;25.00;99.90
2625;DHT22;1322;53.256;10.386;2022-08-19T15:52:04;25.10;99.90
2625;DHT22;1322;53.256;10.386;2022-08-19T15:54:32;25.00;99.90
2625;DHT22;1322;53.256;10.386;2022-08-19T15:56:57;25.00;99.90